Sunnyside, North Carolina
Current Conditions -  °F | °C
As of 3:55 AM on Wednesday 28 Jan 2015 (Local Time) from KMRN Reporting Station
Clear Clear  
Wind Chill: 25°   Ceiling: Unl
Heat Index: 25°   Visibility: 10mi
Dew Point: 11°   Wind: 0mph
Humidity: 57%   Direction: NA
Pressure: 30.11"   Gusts: NA
Location:  35.7567°N, 81.7518°W
Report Text: KMRN 280855Z AUTO 00000KT 10SM CLR M04/M11 A3011 RMK AO2 T10401114
Loading
Personal Weather Stations






























Interactive Weather Map New forecast layout! Learn more

10-Day Weather Forecast

Advertisements
Track Severe Weather on mobile